EKYT/AAL METAR and TAF weather

Enter ICAO airport designator
Station Type Date Time Source
EKYT METAR 2020/07/10 15:50 UTC NOAA

EKYT 101550Z AUTO 26009KT 9999 FEW029/// 16/11 Q1007


Station Type Date Time Source
EKYT Decoded METAR 2020/07/10 15:50 UTC NOAA

Aalborg, Denmark (EKYT) 57-06N 009-51E 13M
Jul 10, 2020 - 11:50 AM EDT / 2020.07.10 1550 UTC
Wind: from the W (260 degrees) at 10 MPH (9 KT):0
Visibility: greater than 7 mile(s):0
Sky conditions: mostly clear
Temperature: 60 F (16 C)
Dew Point: 51 F (11 C)
Relative Humidity: 72%
Pressure (altimeter): 29.74 in. Hg (1007 hPa)
ob: EKYT 101550Z AUTO 26009KT 9999 FEW029/// 16/11 Q1007
cycle: 16

Station Type Date Time Source
EKYT TAF 2020/07/10 15:16 UTC NOAA

TAF EKYT 101411Z 1015/1115 27015KT 9999 FEW020 SCT200
TEMPO 1015/1021 -SHRA SCT020TCU PROB40
TEMPO 1015/1023 3000 TSRA
TEMPO 1021/1107 28015G25KT -SHRA SCT020TCU
TEMPO 1107/1115 28018G32KT

Example: see airport list